createdAt,value
2019-02-15T00:00:52.123Z,8.90
2019-02-15T00:03:22.804Z,8.90
2019-02-15T00:05:53.221Z,8.90
2019-02-15T00:08:23.892Z,8.90
2019-02-15T00:10:54.899Z,8.80
2019-02-15T00:13:26.061Z,8.80
2019-02-15T00:15:57.541Z,8.80
2019-02-15T00:18:50.371Z,8.80
2019-02-15T00:21:27.335Z,8.80
2019-02-15T00:23:58.735Z,8.80
2019-02-15T00:26:29.906Z,8.70
2019-02-15T00:29:02.300Z,8.70
2019-02-15T00:31:33.466Z,8.70
2019-02-15T00:34:06.187Z,8.70
2019-02-15T00:36:37.380Z,8.70
2019-02-15T00:39:09.705Z,8.60
2019-02-15T00:41:41.219Z,8.60
2019-02-15T00:44:12.479Z,8.60
2019-02-15T00:46:54.290Z,8.60
2019-02-15T00:49:35.295Z,8.60
2019-02-15T00:52:31.366Z,8.60
2019-02-15T00:55:22.133Z,8.60
2019-02-15T00:58:14.441Z,8.50
2019-02-15T01:00:55.191Z,8.50
2019-02-15T01:03:40.834Z,8.50
2019-02-15T01:06:27.839Z,8.50
2019-02-15T01:09:09.502Z,8.50
2019-02-15T01:11:57.393Z,8.40
2019-02-15T01:14:28.650Z,8.40
2019-02-15T01:17:00.307Z,8.40
2019-02-15T01:19:31.823Z,8.40
2019-02-15T01:22:03.224Z,8.40
2019-02-15T01:24:34.658Z,8.40
2019-02-15T01:27:18.162Z,8.30
2019-02-15T01:30:15.530Z,8.30
2019-02-15T01:33:20.601Z,8.30
2019-02-15T01:36:19.232Z,8.30
2019-02-15T01:39:14.851Z,8.30
2019-02-15T01:42:03.501Z,8.30
2019-02-15T01:44:59.095Z,8.30
2019-02-15T01:47:34.690Z,8.20
2019-02-15T01:50:05.970Z,8.20
2019-02-15T01:52:36.663Z,8.20
2019-02-15T01:55:08.027Z,8.20
2019-02-15T01:57:39.098Z,8.20
2019-02-15T02:00:11.121Z,8.20
2019-02-15T02:02:42.547Z,8.20
2019-02-15T02:05:13.775Z,8.20
2019-02-15T02:07:44.829Z,8.10
2019-02-15T02:10:14.397Z,8.10
2019-02-15T02:12:45.732Z,8.10
2019-02-15T02:15:15.935Z,8.10
2019-02-15T02:17:47.671Z,8.10
2019-02-15T02:20:18.754Z,8.10
2019-02-15T02:22:48.566Z,8.10
2019-02-15T02:25:20.044Z,8.10
2019-02-15T02:27:51.460Z,8.00
2019-02-15T02:30:24.014Z,8.00
2019-02-15T02:32:55.498Z,8.00
2019-02-15T02:35:26.450Z,8.00
2019-02-15T02:37:57.808Z,8.00
2019-02-15T02:40:28.992Z,8.00
2019-02-15T02:42:58.901Z,8.00
2019-02-15T02:45:28.658Z,7.90
2019-02-15T02:48:00.106Z,7.90
2019-02-15T02:50:30.980Z,7.90
2019-02-15T02:53:02.279Z,7.90
2019-02-15T02:55:33.218Z,7.90
2019-02-15T02:58:04.534Z,7.90
2019-02-15T03:00:35.887Z,7.90
2019-02-15T03:03:06.856Z,7.90
2019-02-15T03:05:37.314Z,7.90
2019-02-15T03:08:08.224Z,7.80
2019-02-15T03:10:39.538Z,7.80
2019-02-15T03:13:10.928Z,7.80
2019-02-15T03:15:41.677Z,7.80
2019-02-15T03:18:12.797Z,7.80
2019-02-15T03:20:43.593Z,7.80
2019-02-15T03:23:14.983Z,7.80
2019-02-15T03:25:45.921Z,7.70
2019-02-15T03:28:17.259Z,7.70
2019-02-15T03:30:48.395Z,7.70
2019-02-15T03:33:20.108Z,7.70
2019-02-15T03:35:56.798Z,7.70
2019-02-15T03:38:41.831Z,7.70
2019-02-15T03:41:32.827Z,7.70
2019-02-15T03:44:03.823Z,7.60
2019-02-15T03:46:34.693Z,7.60
2019-02-15T03:49:05.764Z,7.60
2019-02-15T03:51:35.997Z,7.60
2019-02-15T03:54:06.934Z,7.60
2019-02-15T03:56:38.035Z,7.60
2019-02-15T03:59:09.529Z,7.60
2019-02-15T04:01:40.963Z,7.60
2019-02-15T04:04:10.974Z,7.50
2019-02-15T04:06:41.808Z,7.50
2019-02-15T04:09:11.602Z,7.50
2019-02-15T04:11:43.145Z,7.50
2019-02-15T04:14:14.676Z,7.50
2019-02-15T04:16:46.102Z,7.50
2019-02-15T04:19:17.404Z,7.50
2019-02-15T04:21:48.769Z,7.50
2019-02-15T04:24:18.258Z,7.50
2019-02-15T04:26:49.251Z,7.40
2019-02-15T04:29:20.547Z,7.40
2019-02-15T04:31:50.790Z,7.40
2019-02-15T04:34:22.023Z,7.40
2019-02-15T04:36:53.118Z,7.40
2019-02-15T04:39:23.926Z,7.40
2019-02-15T04:41:53.384Z,7.40
2019-02-15T04:44:24.141Z,7.40
2019-02-15T04:46:55.760Z,7.40
2019-02-15T04:49:26.570Z,7.30
2019-02-15T04:51:57.749Z,7.30
2019-02-15T04:54:28.970Z,7.30
2019-02-15T04:57:00.164Z,7.30
2019-02-15T04:59:31.140Z,7.30
2019-02-15T05:02:00.624Z,7.30
2019-02-15T05:04:30.150Z,7.30
2019-02-15T05:06:59.626Z,7.30
2019-02-15T05:09:29.045Z,7.30
2019-02-15T05:11:58.894Z,7.30
2019-02-15T05:14:28.373Z,7.30
2019-02-15T05:16:57.852Z,7.20
2019-02-15T05:19:27.356Z,7.20
2019-02-15T05:21:56.772Z,7.20
2019-02-15T05:24:26.177Z,7.20
2019-02-15T05:26:55.693Z,7.20
2019-02-15T05:29:25.090Z,7.20
2019-02-15T05:31:54.576Z,7.20
2019-02-15T05:34:24.152Z,7.20
2019-02-15T05:36:53.622Z,7.20
2019-02-15T05:39:23.126Z,7.20
2019-02-15T05:41:52.704Z,7.20
2019-02-15T05:44:22.103Z,7.20
2019-02-15T05:46:51.588Z,7.10
2019-02-15T05:49:22.872Z,7.10
2019-02-15T05:51:52.293Z,7.10
2019-02-15T05:54:21.720Z,7.10
2019-02-15T05:56:51.123Z,7.10
2019-02-15T05:59:20.860Z,7.10
2019-02-15T06:01:50.369Z,7.10
2019-02-15T06:04:19.772Z,7.10
2019-02-15T06:06:49.166Z,7.10
2019-02-15T06:09:18.605Z,7.10
2019-02-15T06:11:48.066Z,7.10
2019-02-15T06:14:17.607Z,7.00
2019-02-15T06:16:47.125Z,7.00
2019-02-15T06:19:16.567Z,7.00
2019-02-15T06:21:46.084Z,7.00
2019-02-15T06:24:15.472Z,7.00
2019-02-15T06:26:44.877Z,7.00
2019-02-15T06:29:14.393Z,7.00
2019-02-15T06:31:43.862Z,7.00
2019-02-15T06:34:13.265Z,7.00
2019-02-15T06:36:42.694Z,7.00
2019-02-15T06:39:12.172Z,7.00
2019-02-15T06:41:41.640Z,7.00
2019-02-15T06:44:11.060Z,7.00
2019-02-15T06:46:40.485Z,7.00
2019-02-15T06:49:09.953Z,6.90
2019-02-15T06:51:39.496Z,7.00
2019-02-15T06:54:09.004Z,6.90
2019-02-15T06:56:38.573Z,6.90
2019-02-15T06:59:42.260Z,6.90
2019-02-15T07:02:26.336Z,6.90
2019-02-15T07:05:17.677Z,6.90
2019-02-15T07:07:47.119Z,6.90
2019-02-15T07:10:16.593Z,6.90
2019-02-15T07:12:45.987Z,6.90
2019-02-15T07:15:15.511Z,6.90
2019-02-15T07:17:46.378Z,6.90
2019-02-15T07:20:15.921Z,6.90
2019-02-15T07:22:45.637Z,6.90
2019-02-15T07:25:15.170Z,6.90
2019-02-15T07:27:44.681Z,6.90
2019-02-15T07:30:15.666Z,6.90
2019-02-15T07:32:46.444Z,7.00
2019-02-15T07:35:15.862Z,7.00
2019-02-15T07:37:45.260Z,7.00
2019-02-15T07:40:14.694Z,7.00
2019-02-15T07:42:44.096Z,7.00
2019-02-15T07:45:13.579Z,7.00
2019-02-15T07:47:43.070Z,7.10
2019-02-15T07:50:13.482Z,7.10
2019-02-15T07:52:44.078Z,7.10
2019-02-15T07:55:13.554Z,7.10
2019-02-15T07:57:43.087Z,7.10
2019-02-15T08:00:13.721Z,7.20
2019-02-15T08:02:43.192Z,7.20
2019-02-15T08:05:12.700Z,7.20
2019-02-15T08:07:42.212Z,7.20
2019-02-15T08:10:12.416Z,7.30
2019-02-15T08:12:41.921Z,7.30
2019-02-15T08:15:11.610Z,7.30
2019-02-15T08:17:41.100Z,7.30
2019-02-15T08:20:11.292Z,7.40
2019-02-15T08:22:40.713Z,7.40
2019-02-15T08:25:10.358Z,7.50
2019-02-15T08:27:39.836Z,7.50
2019-02-15T08:30:10.546Z,7.60
2019-02-15T08:32:39.982Z,7.60
2019-02-15T08:35:09.972Z,7.60
2019-02-15T08:37:39.400Z,7.70
2019-02-15T08:40:09.824Z,7.80
2019-02-15T08:42:40.494Z,7.80
2019-02-15T08:45:11.605Z,7.90
2019-02-15T08:47:41.130Z,7.90
2019-02-15T08:50:10.868Z,8.00
2019-02-15T08:52:40.288Z,8.10
2019-02-15T08:55:10.179Z,8.10
2019-02-15T08:57:39.644Z,8.20
2019-02-15T09:00:10.240Z,8.30
2019-02-15T09:02:39.672Z,8.30
2019-02-15T09:05:11.352Z,8.40
2019-02-15T09:07:40.874Z,8.50
2019-02-15T09:10:11.432Z,8.50
2019-02-15T09:12:40.838Z,8.60
2019-02-15T09:15:13.420Z,8.70
2019-02-15T09:17:42.898Z,8.70
2019-02-15T09:20:12.848Z,8.80
2019-02-15T09:22:42.336Z,8.80
2019-02-15T09:25:12.948Z,8.90
2019-02-15T09:28:08.620Z,8.90
2019-02-15T09:30:38.148Z,9.00
2019-02-15T09:33:07.641Z,9.00
2019-02-15T09:35:37.048Z,9.00
2019-02-15T09:38:07.409Z,9.10
2019-02-15T09:40:36.821Z,9.10
2019-02-15T09:43:06.299Z,9.20
2019-02-15T09:45:35.861Z,9.20
2019-02-15T09:48:07.071Z,9.30
2019-02-15T09:50:36.581Z,9.30
2019-02-15T09:53:06.178Z,9.40
2019-02-15T09:55:37.153Z,9.40
2019-02-15T09:58:06.856Z,9.50
2019-02-15T10:00:36.750Z,9.50
2019-02-15T10:03:06.234Z,9.60
2019-02-15T10:05:35.718Z,9.60
2019-02-15T10:08:05.248Z,9.70
2019-02-15T10:10:34.664Z,9.80
2019-02-15T10:13:04.223Z,9.90
2019-02-15T10:15:34.764Z,10.00
2019-02-15T10:18:04.176Z,10.10
2019-02-15T10:20:33.597Z,10.10
2019-02-15T10:23:03.093Z,10.20
2019-02-15T10:25:33.537Z,10.30
2019-02-15T10:28:02.997Z,10.40
2019-02-15T10:30:32.417Z,10.50
2019-02-15T10:33:01.965Z,10.60
2019-02-15T10:35:31.481Z,10.70
2019-02-15T10:38:02.447Z,10.80
2019-02-15T10:40:31.896Z,10.80
2019-02-15T10:43:01.377Z,10.90
2019-02-15T10:45:30.781Z,11.00
2019-02-15T10:48:00.202Z,11.10
2019-02-15T10:50:30.197Z,11.20
2019-02-15T10:53:00.669Z,11.30
2019-02-15T10:55:31.194Z,11.30
2019-02-15T10:58:00.682Z,11.40
2019-02-15T11:00:30.165Z,11.50
2019-02-15T11:02:59.807Z,11.50
2019-02-15T11:05:29.281Z,11.60
2019-02-15T11:07:58.775Z,11.70
2019-02-15T11:10:28.346Z,11.70
2019-02-15T11:12:57.770Z,11.80
2019-02-15T11:15:27.201Z,11.90
2019-02-15T11:17:57.621Z,11.90
2019-02-15T11:20:27.246Z,12.00
2019-02-15T11:22:56.861Z,12.00
2019-02-15T11:25:26.297Z,12.10
2019-02-15T11:27:55.821Z,12.10
2019-02-15T11:30:25.229Z,12.10
2019-02-15T11:32:54.707Z,12.20
2019-02-15T11:35:24.309Z,12.30
2019-02-15T11:37:53.756Z,12.30
2019-02-15T11:40:23.331Z,12.30
2019-02-15T11:42:53.856Z,12.40
2019-02-15T11:45:23.500Z,12.40
2019-02-15T11:47:52.932Z,12.50
2019-02-15T11:50:22.347Z,12.50
2019-02-15T11:52:51.864Z,12.50
2019-02-15T11:55:21.368Z,12.60
2019-02-15T11:57:50.912Z,12.70
2019-02-15T12:00:25.149Z,12.70
2019-02-15T12:02:54.650Z,12.80
2019-02-15T12:05:24.389Z,12.80
2019-02-15T12:07:53.923Z,12.90
2019-02-15T12:10:25.156Z,13.00
2019-02-15T12:12:54.634Z,13.00
2019-02-15T12:15:24.113Z,13.10
2019-02-15T12:17:53.613Z,13.20
2019-02-15T12:20:23.213Z,13.30
2019-02-15T12:22:52.621Z,13.40
2019-02-15T12:25:22.028Z,13.50
2019-02-15T12:27:51.609Z,13.60
2019-02-15T12:30:21.016Z,13.80
2019-02-15T12:32:50.465Z,14.00
2019-02-15T12:35:19.942Z,14.10
2019-02-15T12:37:50.837Z,14.30
2019-02-15T12:40:20.272Z,14.50
2019-02-15T12:42:49.684Z,14.60
2019-02-15T12:45:19.412Z,14.80
2019-02-15T12:47:48.887Z,15.00
2019-02-15T12:50:18.445Z,15.20
2019-02-15T12:52:47.940Z,15.30
2019-02-15T12:55:17.412Z,15.60
2019-02-15T12:57:46.840Z,15.70
2019-02-15T13:00:16.268Z,15.90
2019-02-15T13:02:45.677Z,16.10
2019-02-15T13:05:15.459Z,16.30
2019-02-15T13:07:44.920Z,16.50
2019-02-15T13:10:16.321Z,16.70
2019-02-15T13:12:45.817Z,16.90
2019-02-15T13:15:15.233Z,17.00
2019-02-15T13:17:44.729Z,17.20
2019-02-15T13:20:15.700Z,17.40
2019-02-15T13:22:45.178Z,17.60
2019-02-15T13:25:14.596Z,17.70
2019-02-15T13:27:44.037Z,17.90
2019-02-15T13:30:13.544Z,18.10
2019-02-15T13:32:42.984Z,18.20
2019-02-15T13:35:14.112Z,18.30
2019-02-15T13:37:43.638Z,18.50
2019-02-15T13:40:13.934Z,18.60
2019-02-15T13:42:43.449Z,18.70
2019-02-15T13:45:13.060Z,18.90
2019-02-15T13:47:42.537Z,19.00
2019-02-15T13:50:12.348Z,19.10
2019-02-15T13:52:41.756Z,19.10
2019-02-15T13:55:11.379Z,19.20
2019-02-15T13:57:40.899Z,19.20
2019-02-15T14:00:11.444Z,19.30
2019-02-15T14:02:40.870Z,19.30
2019-02-15T14:05:10.736Z,19.40
2019-02-15T14:07:40.195Z,19.40
2019-02-15T14:10:10.674Z,19.40
2019-02-15T14:12:40.262Z,19.40
2019-02-15T14:15:11.210Z,19.40
2019-02-15T14:17:44.760Z,19.40
2019-02-15T14:20:12.002Z,19.40
2019-02-15T14:22:41.555Z,19.30
2019-02-15T14:25:11.062Z,19.30
2019-02-15T14:27:40.469Z,19.20
2019-02-15T14:30:10.700Z,19.20
2019-02-15T14:32:40.118Z,19.20
2019-02-15T14:35:10.029Z,19.10
2019-02-15T14:37:39.528Z,19.10
2019-02-15T14:40:09.693Z,19.00
2019-02-15T14:42:39.218Z,19.00
2019-02-15T14:45:10.227Z,19.00
2019-02-15T14:47:40.761Z,18.90
2019-02-15T14:50:11.530Z,18.80
2019-02-15T14:52:41.016Z,18.80
2019-02-15T14:55:10.595Z,18.70
2019-02-15T14:57:40.087Z,18.70
2019-02-15T15:00:11.201Z,18.60
2019-02-15T15:02:40.820Z,18.50
2019-02-15T15:05:10.572Z,18.50
2019-02-15T15:07:39.986Z,18.40
2019-02-15T15:10:09.486Z,18.40
2019-02-15T15:12:38.905Z,18.30
2019-02-15T15:15:11.609Z,18.30
2019-02-15T15:17:40.741Z,18.20
2019-02-15T15:20:11.294Z,18.20
2019-02-15T15:22:40.781Z,18.10
2019-02-15T15:25:12.215Z,18.10
2019-02-15T15:27:41.887Z,18.00
2019-02-15T15:30:12.229Z,17.90
2019-02-15T15:32:41.960Z,17.90
2019-02-15T15:35:11.497Z,17.90
2019-02-15T15:37:40.979Z,17.80
2019-02-15T15:40:11.708Z,17.80
2019-02-15T15:42:41.112Z,17.70
2019-02-15T15:45:10.996Z,17.70
2019-02-15T15:47:40.502Z,17.60
2019-02-15T15:50:11.034Z,17.60
2019-02-15T15:52:40.506Z,17.50
2019-02-15T15:55:10.630Z,17.50
2019-02-15T15:57:40.115Z,17.40
2019-02-15T16:00:11.016Z,17.30
2019-02-15T16:02:40.580Z,17.30
2019-02-15T16:05:10.419Z,17.20
2019-02-15T16:07:39.928Z,17.20
2019-02-15T16:10:10.969Z,17.10
2019-02-15T16:12:40.814Z,17.10
2019-02-15T16:15:11.411Z,17.00
2019-02-15T16:17:40.957Z,16.90
2019-02-15T16:20:11.012Z,16.80
2019-02-15T16:22:40.456Z,16.70
2019-02-15T16:25:09.989Z,16.70
2019-02-15T16:27:40.344Z,16.60
2019-02-15T16:30:11.120Z,16.50
2019-02-15T16:32:40.569Z,16.50
2019-02-15T16:35:10.576Z,16.40
2019-02-15T16:37:40.078Z,16.30
2019-02-15T16:40:11.825Z,16.20
2019-02-15T16:42:41.485Z,16.20
2019-02-15T16:45:13.292Z,16.10
2019-02-15T16:47:44.591Z,16.00
2019-02-15T16:50:14.285Z,15.90
2019-02-15T16:52:43.787Z,15.90
2019-02-15T16:55:13.599Z,15.80
2019-02-15T16:57:43.269Z,15.70
2019-02-15T17:00:12.909Z,15.70
2019-02-15T17:02:42.489Z,15.60
2019-02-15T17:05:12.601Z,15.50
2019-02-15T17:07:42.135Z,15.40
2019-02-15T17:10:11.925Z,15.40
2019-02-15T17:12:43.226Z,15.30
2019-02-15T17:15:13.044Z,15.30
2019-02-15T17:17:42.622Z,15.20
2019-02-15T17:20:12.233Z,15.10
2019-02-15T17:22:41.737Z,15.10
2019-02-15T17:25:11.173Z,15.00
2019-02-15T17:27:40.689Z,14.90
2019-02-15T17:30:10.440Z,14.80
2019-02-15T17:32:39.854Z,14.80
2019-02-15T17:35:09.785Z,14.70
2019-02-15T17:37:39.198Z,14.70
2019-02-15T17:40:09.931Z,14.60
2019-02-15T17:42:39.426Z,14.60
2019-02-15T17:45:09.753Z,14.50
2019-02-15T17:47:39.264Z,14.40
2019-02-15T17:50:09.079Z,14.40
2019-02-15T17:52:38.575Z,14.30
2019-02-15T17:55:08.149Z,14.20
2019-02-15T17:57:37.795Z,14.20
2019-02-15T18:00:08.317Z,14.10
2019-02-15T18:02:37.805Z,14.10
2019-02-15T18:05:09.642Z,14.00
2019-02-15T18:07:39.135Z,14.00
2019-02-15T18:10:08.637Z,13.90
2019-02-15T18:12:39.173Z,13.80
2019-02-15T18:15:08.796Z,13.80
2019-02-15T18:17:39.811Z,13.70
2019-02-15T18:20:09.348Z,13.70
2019-02-15T18:22:38.854Z,13.60
2019-02-15T18:25:08.475Z,13.60
2019-02-15T18:27:37.964Z,13.50
2019-02-15T18:30:08.636Z,13.50
2019-02-15T18:32:38.112Z,13.40
2019-02-15T18:35:07.688Z,13.40
2019-02-15T18:37:37.162Z,13.30
2019-02-15T18:40:07.366Z,13.30
2019-02-15T18:42:37.051Z,13.20
2019-02-15T18:45:07.490Z,13.20
2019-02-15T18:47:36.923Z,13.10
2019-02-15T18:50:06.524Z,13.00
2019-02-15T18:52:37.086Z,13.00
2019-02-15T18:55:08.269Z,12.90
2019-02-15T18:57:37.757Z,12.90
2019-02-15T19:00:09.473Z,12.80
2019-02-15T19:02:38.957Z,12.80
2019-02-15T19:05:09.749Z,12.80
2019-02-15T19:07:58.205Z,12.70
2019-02-15T19:10:27.620Z,12.70
2019-02-15T19:12:58.510Z,12.60
2019-02-15T19:15:27.953Z,12.60
2019-02-15T19:17:57.364Z,12.50
2019-02-15T19:20:26.852Z,12.50
2019-02-15T19:22:56.368Z,12.40
2019-02-15T19:25:25.862Z,12.40
2019-02-15T19:27:55.355Z,12.40
2019-02-15T19:30:25.954Z,12.30
2019-02-15T19:32:55.828Z,12.30
2019-02-15T19:35:25.264Z,12.30
2019-02-15T19:37:54.692Z,12.20
2019-02-15T19:40:24.132Z,12.20
2019-02-15T19:42:54.157Z,12.10
2019-02-15T19:45:23.568Z,12.10
2019-02-15T19:47:53.083Z,12.10
2019-02-15T19:50:22.568Z,12.00
2019-02-15T19:52:52.005Z,12.00
2019-02-15T19:55:22.429Z,12.00
2019-02-15T19:57:53.309Z,11.90
2019-02-15T20:00:22.764Z,11.90
2019-02-15T20:02:52.247Z,11.90
2019-02-15T20:05:21.730Z,11.80
2019-02-15T20:07:51.166Z,11.80
2019-02-15T20:10:21.855Z,11.70
2019-02-15T20:12:51.374Z,11.70
2019-02-15T20:15:20.797Z,11.70
2019-02-15T20:17:50.216Z,11.70
2019-02-15T20:20:19.673Z,11.60
2019-02-15T20:22:49.112Z,11.60
2019-02-15T20:25:18.596Z,11.50
2019-02-15T20:27:48.073Z,11.50
2019-02-15T20:30:18.665Z,11.50
2019-02-15T20:32:49.180Z,11.40
2019-02-15T20:35:18.592Z,11.40
2019-02-15T20:37:48.158Z,11.40
2019-02-15T20:40:17.734Z,11.40
2019-02-15T20:42:47.245Z,11.30
2019-02-15T20:45:18.468Z,11.30
2019-02-15T20:47:48.079Z,11.30
2019-02-15T20:50:17.749Z,11.20
2019-02-15T20:52:48.721Z,11.20
2019-02-15T20:55:18.161Z,11.20
2019-02-15T20:57:47.648Z,11.10
2019-02-15T21:00:22.246Z,11.10
2019-02-15T21:02:51.739Z,11.10
2019-02-15T21:05:21.244Z,11.00
2019-02-15T21:07:50.757Z,11.00
2019-02-15T21:10:22.080Z,11.00
2019-02-15T21:12:51.850Z,11.00
2019-02-15T21:15:21.344Z,10.90
2019-02-15T21:17:50.869Z,10.90
2019-02-15T21:20:20.365Z,10.90
2019-02-15T21:22:49.857Z,10.80
2019-02-15T21:25:19.304Z,10.80
2019-02-15T21:27:48.752Z,10.80
2019-02-15T21:30:18.326Z,10.70
2019-02-15T21:32:47.897Z,10.70
2019-02-15T21:35:17.432Z,10.70
2019-02-15T21:37:46.931Z,10.70
2019-02-15T21:40:16.628Z,10.60
2019-02-15T21:42:46.184Z,10.60
2019-02-15T21:45:16.697Z,10.60
2019-02-15T21:47:57.990Z,10.60
2019-02-15T21:50:30.309Z,10.50
2019-02-15T21:52:59.904Z,10.50
2019-02-15T21:55:29.338Z,10.50
2019-02-15T21:58:01.384Z,10.50
2019-02-15T22:00:30.073Z,10.40
2019-02-15T22:03:00.588Z,10.40
2019-02-15T22:05:30.073Z,10.40
2019-02-15T22:07:59.645Z,10.30
2019-02-15T22:10:29.073Z,10.30
2019-02-15T22:12:58.569Z,10.30
2019-02-15T22:15:28.008Z,10.30
2019-02-15T22:17:57.457Z,10.20
2019-02-15T22:20:27.195Z,10.20
2019-02-15T22:22:56.765Z,10.20
2019-02-15T22:25:26.341Z,10.20
2019-02-15T22:27:55.794Z,10.20
2019-02-15T22:30:25.209Z,10.10
2019-02-15T22:32:54.661Z,10.10
2019-02-15T22:35:24.106Z,10.10
2019-02-15T22:37:53.608Z,10.10
2019-02-15T22:40:27.737Z,10.00
2019-02-15T22:42:57.809Z,10.00
2019-02-15T22:45:27.228Z,10.00
2019-02-15T22:47:56.668Z,10.00
2019-02-15T22:50:35.281Z,10.00
2019-02-15T22:52:58.237Z,9.90
2019-02-15T22:55:27.732Z,9.90
2019-02-15T22:57:57.147Z,9.90
2019-02-15T23:00:39.907Z,9.90
2019-02-15T23:03:09.393Z,9.90
2019-02-15T23:05:38.870Z,9.80
2019-02-15T23:08:09.308Z,9.80
2019-02-15T23:10:38.720Z,9.80
2019-02-15T23:13:08.250Z,9.80
2019-02-15T23:15:37.737Z,9.70
2019-02-15T23:18:07.232Z,9.70
2019-02-15T23:20:44.868Z,9.70
2019-02-15T23:23:08.990Z,9.70
2019-02-15T23:25:38.544Z,9.70
2019-02-15T23:28:07.990Z,9.70
2019-02-15T23:30:37.464Z,9.60
2019-02-15T23:33:06.945Z,9.60
2019-02-15T23:35:36.448Z,9.60
2019-02-15T23:38:05.877Z,9.60
2019-02-15T23:40:35.333Z,9.60
2019-02-15T23:43:04.837Z,9.60
2019-02-15T23:45:34.249Z,9.60
2019-02-15T23:48:03.748Z,9.50
2019-02-15T23:50:33.255Z,9.50
2019-02-15T23:53:03.837Z,9.50
2019-02-15T23:55:33.264Z,9.50
2019-02-15T23:58:02.693Z,9.50
